Time;durP1;ratioP1;P1;durP2;ratioP2;P2;SDS_P1;SDS_P2;PMS_P1;PMS_P2;Temp;Humidity;BMP_temperature;BMP_pressure;BME280_temperature;BME280_humidity;BME280_pressure;Samples;Min_cycle;Max_cycle;Signal;HPM_P1;HPM_P2
2021/03/18 00:01:11;;;;;;;0.70;0.60;;;-0.90;99.90;;;-0.49;100.00;-20668.22;5053502;28;20174;-68
2021/03/18 00:03:41;;;;;;;0.70;0.60;;;-0.90;99.90;;;-0.37;100.00;-20671.44;5045569;28;20287;-68
2021/03/18 00:06:08;;;;;;;0.70;0.60;;;-1.00;99.90;;;-0.41;100.00;-20670.19;5032358;28;20296;-69
2021/03/18 00:08:37;;;;;;;0.70;0.60;;;-0.90;99.90;;;-0.54;100.00;-20666.81;5032827;28;20206;-68
2021/03/18 00:11:07;;;;;;;0.70;0.60;;;-1.00;99.90;;;-0.64;100.00;-20664.03;5031591;28;20642;-68
2021/03/18 00:13:35;;;;;;;0.70;0.60;;;-1.00;99.90;;;-0.61;100.00;-20664.72;5033125;28;20674;-68
2021/03/18 00:16:03;;;;;;;0.70;0.60;;;-0.90;99.90;;;-0.61;100.00;-20664.88;5032513;28;20225;-67
2021/03/18 00:18:37;;;;;;;0.70;0.68;;;-1.00;99.90;;;-0.64;100.00;-20664.03;5025962;28;20305;-69
2021/03/18 00:21:05;;;;;;;0.70;0.60;;;-0.90;99.90;;;-0.54;100.00;-20666.81;5013843;28;20183;-69
2021/03/18 00:23:33;;;;;;;0.70;0.70;;;-1.00;99.90;;;-0.62;100.00;-20664.59;5040605;28;20186;-68
2021/03/18 00:26:01;;;;;;;0.70;0.60;;;-1.10;99.90;;;-0.75;100.00;-20660.94;5064732;28;20198;-68
2021/03/18 00:28:28;;;;;;;0.75;0.70;;;-1.10;99.90;;;-0.76;100.00;-20660.81;5031412;28;20647;-68
2021/03/18 00:30:56;;;;;;;0.85;0.85;;;-1.10;99.90;;;-0.75;100.00;-20661.06;5062320;28;20201;-68
2021/03/18 00:33:24;;;;;;;0.70;0.60;;;-1.20;99.90;;;-0.75;100.00;-20660.94;5032181;28;20206;-68
2021/03/18 00:35:52;;;;;;;0.70;0.70;;;-1.20;99.90;;;-0.78;100.00;-20660.09;5032933;28;20185;-67
2021/03/18 00:38:20;;;;;;;0.70;0.63;;;-1.20;99.90;;;-0.67;100.00;-20663.19;5031420;28;20241;-67
2021/03/18 00:40:52;;;;;;;0.73;0.70;;;-1.20;99.90;;;-0.80;100.00;-20659.53;5029881;28;20213;-72
2021/03/18 00:43:23;;;;;;;0.70;0.60;;;-1.30;99.90;;;-0.85;100.00;-20658.13;5020806;28;20259;-68
2021/03/18 00:45:51;;;;;;;0.70;0.65;;;-1.30;99.90;;;-0.75;100.00;-20661.06;5064213;28;20615;-68
2021/03/18 00:48:21;;;;;;;0.70;0.70;;;-1.30;99.90;;;-0.73;100.00;-20661.50;5030305;28;20317;-68
2021/03/18 00:50:55;;;;;;;0.70;0.60;;;-1.20;99.90;;;-0.67;100.00;-20663.03;5030123;28;20260;-68
2021/03/18 00:53:29;;;;;;;0.80;0.80;;;-1.20;99.90;;;-0.79;100.00;-20659.97;5031131;28;20647;-68
2021/03/18 00:55:56;;;;;;;0.70;0.63;;;-1.20;99.90;;;-0.86;100.00;-20657.84;5032422;28;20190;-68
2021/03/18 00:58:24;;;;;;;0.70;0.60;;;-1.20;99.90;;;-0.83;100.00;-20658.69;5030949;28;20652;-68
2021/03/18 01:00:54;;;;;;;0.70;0.60;;;-1.30;99.90;;;-0.95;100.00;-20655.34;5032376;28;20179;-68
2021/03/18 01:03:25;;;;;;;0.70;0.70;;;-1.30;99.90;;;-0.97;100.00;-20654.91;5034470;28;20295;-67
2021/03/18 01:06:00;;;;;;;0.70;0.65;;;-1.30;99.90;;;-0.85;100.00;-20658.28;5034980;28;20194;-72
2021/03/18 01:08:30;;;;;;;0.70;0.60;;;-1.40;99.90;;;-0.91;100.00;-20656.47;5034731;28;20186;-68
2021/03/18 01:11:01;;;;;;;0.70;0.60;;;-1.40;99.90;;;-0.92;100.00;-20656.19;5033306;28;20214;-68
2021/03/18 01:13:28;;;;;;;0.70;0.60;;;-1.30;99.90;;;-0.86;100.00;-20657.84;5035489;28;20244;-70
2021/03/18 01:15:59;;;;;;;0.85;0.85;;;-1.30;99.90;;;-0.80;100.00;-20659.69;5035598;28;20198;-68
2021/03/18 01:18:33;;;;;;;0.70;0.60;;;-1.30;99.90;;;-0.68;100.00;-20662.91;5035614;28;20221;-69
2021/03/18 01:21:01;;;;;;;0.70;0.65;;;-1.20;99.90;;;-0.69;100.00;-20662.47;5035087;28;20182;-68
2021/03/18 01:23:28;;;;;;;0.70;0.60;;;-1.20;99.90;;;-0.69;100.00;-20662.47;5033310;28;20187;-68
2021/03/18 01:25:55;;;;;;;0.70;0.70;;;-1.20;99.90;;;-0.58;100.00;-20665.69;5035471;28;20602;-68
2021/03/18 01:28:23;;;;;;;0.70;0.60;;;-1.20;99.90;;;-0.66;100.00;-20663.31;5033861;28;20216;-68
2021/03/18 01:30:53;;;;;;;0.70;0.60;;;-1.20;99.90;;;-0.64;100.00;-20664.03;5035044;28;20277;-68
2021/03/18 01:33:21;;;;;;;0.70;0.60;;;-1.20;99.90;;;-0.53;100.00;-20666.97;5050268;28;20222;-68
2021/03/18 01:35:49;;;;;;;0.70;0.70;;;-1.20;99.90;;;-0.53;100.00;-20667.09;5035417;28;20229;-68
2021/03/18 01:38:17;;;;;;;0.70;0.60;;;-1.10;99.90;;;-0.30;100.00;-20673.25;5034708;28;20190;-68
2021/03/18 01:40:44;;;;;;;0.70;0.70;;;-1.00;99.90;;;-0.42;100.00;-20669.91;5032793;28;20198;-68
2021/03/18 01:43:11;;;;;;;0.70;0.60;;;-1.00;99.90;;;-0.44;100.00;-20669.34;5034179;28;20203;-70
2021/03/18 01:45:39;;;;;;;1.23;1.13;;;-1.00;99.90;;;-0.42;100.00;-20669.91;5032674;28;20521;-68
2021/03/18 01:48:08;;;;;;;0.70;0.60;;;-1.00;99.90;;;-0.42;100.00;-20670.03;5035074;28;20226;-68
2021/03/18 01:50:39;;;;;;;0.70;0.60;;;-1.00;99.90;;;-0.36;100.00;-20671.59;5017966;28;20186;-69
2021/03/18 01:53:06;;;;;;;0.70;0.60;;;-1.00;99.90;;;-0.29;100.00;-20673.53;5032991;28;20198;-68
2021/03/18 01:55:36;;;;;;;0.80;0.80;;;-1.00;99.90;;;-0.28;100.00;-20673.97;5033996;28;20206;-68
2021/03/18 01:58:06;;;;;;;0.70;0.70;;;-1.00;99.90;;;-0.14;100.00;-20677.75;5034805;28;20532;-68
2021/03/18 02:00:36;;;;;;;0.70;0.65;;;-1.00;99.90;;;-0.21;100.00;-20675.78;5016322;28;20285;-70
2021/03/18 02:03:04;;;;;;;0.70;0.60;;;-0.90;99.90;;;-0.16;100.00;-20677.03;5034870;28;20206;-69
2021/03/18 02:05:32;;;;;;;0.70;0.60;;;-0.80;99.90;;;-0.17;100.00;-20676.91;5034809;28;20260;-69
2021/03/18 02:08:01;;;;;;;0.68;0.60;;;-0.70;99.90;;;-0.12;100.00;-20678.16;5033231;28;20202;-67
2021/03/18 02:10:30;;;;;;;0.70;0.60;;;-0.70;99.90;;;-0.12;100.00;-20678.31;5033214;28;20285;-70
2021/03/18 02:13:00;;;;;;;0.70;0.60;;;-0.80;99.90;;;-0.03;100.00;-20680.81;5034047;28;20190;-68
2021/03/18 02:15:31;;;;;;;0.70;0.60;;;-0.80;99.90;;;0.06;100.00;-20683.06;5034169;28;20217;-70
2021/03/18 02:18:07;;;;;;;0.70;0.60;;;-0.70;99.90;;;0.07;100.00;-20683.34;5034923;28;20341;-69
2021/03/18 02:21:26;;;;;;;0.70;0.60;;;-0.70;99.90;;;0.17;100.00;-20686.13;5033366;28;20681;-68
2021/03/18 02:24:21;;;;;;;0.70;0.60;;;-0.60;99.90;;;0.26;100.00;-20688.53;5034325;28;20199;-67
2021/03/18 02:27:42;;;;;;;0.70;0.60;;;-0.50;99.90;;;0.29;100.00;-20689.50;5038115;28;20217;-69
2021/03/18 02:30:48;;;;;;;0.70;0.60;;;-0.50;99.90;;;0.41;100.00;-20692.72;5002823;28;20284;-68
2021/03/18 02:34:12;;;;;;;0.70;0.60;;;-0.40;99.90;;;0.46;100.00;-20694.25;5034099;28;20214;-70
2021/03/18 02:36:47;;;;;;;0.70;0.60;;;-0.40;99.90;;;0.56;100.00;-20696.78;5032612;28;20201;-67
2021/03/18 02:39:20;;;;;;;0.70;0.65;;;-0.30;99.90;;;0.59;100.00;-20697.63;5032751;28;20190;-68
2021/03/18 02:41:52;;;;;;;0.70;0.60;;;-0.30;99.90;;;0.64;100.00;-20699.00;5023132;28;20181;-68
2021/03/18 02:44:22;;;;;;;0.73;0.73;;;-0.20;99.90;;;0.75;100.00;-20701.94;5013253;28;20194;-67
2021/03/18 02:47:03;;;;;;;0.70;0.60;;;-0.10;99.90;;;0.80;100.00;-20703.50;5020893;28;20194;-68
2021/03/18 02:49:34;;;;;;;0.70;0.65;;;0.00;99.90;;;0.92;100.00;-20706.84;5032176;28;20218;-68
2021/03/18 02:52:06;;;;;;;0.70;0.60;;;0.10;99.90;;;1.03;100.00;-20709.63;5032354;28;20202;-67
2021/03/18 02:54:34;;;;;;;0.70;0.70;;;0.20;99.90;;;1.05;100.00;-20710.19;5034102;28;20207;-68
2021/03/18 02:57:04;;;;;;;0.70;0.60;;;0.20;99.90;;;1.06;100.00;-20710.47;5032505;28;20277;-67
2021/03/18 02:59:34;;;;;;;0.70;0.60;;;0.10;99.90;;;1.07;100.00;-20710.75;5033461;28;20602;-68
2021/03/18 03:02:06;;;;;;;0.90;0.90;;;0.10;99.90;;;1.07;100.00;-20710.75;5034125;28;20543;-69
2021/03/18 03:04:37;;;;;;;0.63;0.60;;;0.10;99.90;;;1.11;100.00;-20712.03;5032125;28;20214;-67
2021/03/18 03:07:26;;;;;;;0.70;0.65;;;0.20;99.90;;;1.18;100.00;-20713.84;5024062;28;20194;-67
2021/03/18 03:09:55;;;;;;;0.70;0.60;;;0.30;99.90;;;1.23;100.00;-20715.22;5029649;28;20556;-68
2021/03/18 03:12:26;;;;;;;0.70;0.60;;;0.30;99.90;;;1.26;100.00;-20715.94;5022885;28;20262;-69
2021/03/18 03:14:55;;;;;;;0.70;0.60;;;0.30;99.90;;;1.27;100.00;-20716.34;5014060;28;20191;-68
2021/03/18 03:17:26;;;;;;;0.70;0.70;;;0.30;99.90;;;1.28;100.00;-20716.50;5019644;28;20627;-67
2021/03/18 03:19:58;;;;;;;0.70;0.50;;;0.30;99.90;;;1.24;100.00;-20715.38;5033046;28;20242;-68
2021/03/18 03:22:27;;;;;;;0.70;0.65;;;0.30;99.90;;;1.32;100.00;-20717.75;5020893;28;20714;-68
2021/03/18 03:24:56;;;;;;;0.70;0.60;;;0.40;99.90;;;1.35;100.00;-20718.59;5031596;28;20186;-68
2021/03/18 03:27:24;;;;;;;0.70;0.60;;;0.40;99.90;;;1.33;100.00;-20718.03;5033130;28;20256;-67
2021/03/18 03:29:51;;;;;;;0.70;0.60;;;0.40;99.90;;;1.36;100.00;-20718.88;5032174;28;20194;-68
2021/03/18 03:32:18;;;;;;;0.70;0.60;;;0.40;99.90;;;1.29;100.00;-20716.91;5032570;28;20206;-68
2021/03/18 03:34:45;;;;;;;0.70;0.60;;;0.40;99.90;;;1.24;100.00;-20715.50;5032696;28;20214;-67
2021/03/18 03:37:13;;;;;;;0.70;0.60;;;0.30;99.90;;;1.15;100.00;-20713.13;5031941;28;20194;-67
2021/03/18 03:39:41;;;;;;;0.60;0.60;;;0.20;99.90;;;1.10;100.00;-20711.59;5035948;28;20221;-67
2021/03/18 03:42:09;;;;;;;0.70;0.60;;;0.20;99.90;;;1.02;100.00;-20709.38;5034531;28;20281;-67
2021/03/18 03:44:38;;;;;;;0.63;0.60;;;0.10;99.90;;;0.96;100.00;-20707.97;5032954;28;20229;-67
2021/03/18 03:47:08;;;;;;;0.70;0.60;;;0.00;99.90;;;0.84;100.00;-20704.47;5032159;28;20190;-66
2021/03/18 03:49:37;;;;;;;0.80;0.75;;;0.00;99.90;;;0.76;100.00;-20702.38;5032339;28;20206;-69
2021/03/18 03:52:15;;;;;;;0.70;0.60;;;-0.10;99.90;;;0.65;100.00;-20699.28;5032622;28;20239;-68
2021/03/18 03:54:52;;;;;;;0.70;0.60;;;-0.20;99.90;;;0.67;100.00;-20699.84;5033287;28;20285;-67
2021/03/18 03:57:25;;;;;;;0.70;0.60;;;-0.10;99.90;;;0.59;100.00;-20697.75;5032601;28;20194;-68
2021/03/18 03:59:57;;;;;;;0.70;0.68;;;-0.10;99.90;;;0.51;100.00;-20695.38;5033066;28;20170;-68
2021/03/18 04:02:26;;;;;;;0.70;0.60;;;-0.30;99.90;;;0.44;100.00;-20693.69;5013863;28;20290;-68
2021/03/18 04:04:55;;;;;;;0.68;0.57;;;-0.40;99.90;;;0.40;100.00;-20692.56;5024536;28;20336;-68
2021/03/18 04:07:28;;;;;;;0.70;0.60;;;-0.40;99.90;;;0.43;100.00;-20693.41;5026930;28;20623;-68
2021/03/18 04:09:59;;;;;;;0.70;0.70;;;-0.50;99.90;;;0.36;100.00;-20691.47;5013509;28;20188;-68
2021/03/18 04:12:31;;;;;;;0.70;0.70;;;-0.50;99.90;;;0.31;100.00;-20690.06;5013392;28;20198;-68
2021/03/18 04:15:05;;;;;;;0.60;0.60;;;-0.40;99.90;;;0.29;100.00;-20689.50;5030005;28;20589;-68
2021/03/18 04:17:33;;;;;;;0.80;0.80;;;-0.50;99.90;;;0.36;100.00;-20691.47;5033070;28;20190;-68
2021/03/18 04:20:06;;;;;;;0.70;0.70;;;-0.50;99.90;;;0.36;100.00;-20691.47;5032090;28;20221;-68
2021/03/18 04:22:33;;;;;;;0.70;0.60;;;-0.50;99.90;;;0.42;100.00;-20693.00;5031133;28;20202;-68
2021/03/18 04:25:06;;;;;;;0.70;0.60;;;-0.40;99.90;;;0.49;100.00;-20694.97;5032844;28;20274;-68
2021/03/18 04:27:34;;;;;;;0.70;0.60;;;-0.30;99.90;;;0.63;100.00;-20698.88;5036266;28;20251;-68
2021/03/18 04:30:05;;;;;;;0.70;0.70;;;-0.20;99.90;;;0.65;100.00;-20699.28;5038225;28;20201;-69
2021/03/18 04:32:33;;;;;;;0.70;0.65;;;-0.20;99.90;;;0.62;100.00;-20698.44;5032895;28;20186;-69
2021/03/18 04:35:00;;;;;;;0.70;0.70;;;-0.20;99.90;;;0.72;100.00;-20701.25;5034698;28;20214;-69
2021/03/18 04:37:27;;;;;;;0.70;0.60;;;-0.20;99.90;;;0.87;100.00;-20705.44;5056865;28;20190;-70
2021/03/18 04:39:55;;;;;;;0.70;0.70;;;0.00;99.90;;;0.95;100.00;-20707.69;5046060;28;20754;-68
2021/03/18 04:42:24;;;;;;;0.70;0.60;;;0.00;99.90;;;0.96;100.00;-20707.97;5039144;28;20186;-68
2021/03/18 04:44:51;;;;;;;0.70;0.60;;;0.00;99.90;;;1.04;100.00;-20709.94;5031263;28;20590;-68
2021/03/18 04:47:19;;;;;;;0.65;0.60;;;0.10;99.90;;;1.07;100.00;-20710.75;5037509;28;20520;-67
2021/03/18 04:49:48;;;;;;;0.60;0.60;;;0.10;99.90;;;1.13;100.00;-20712.44;5035200;28;20236;-67
2021/03/18 04:52:18;;;;;;;7.80;1.45;;;0.10;99.90;;;1.17;100.00;-20713.56;5035026;28;20542;-68
2021/03/18 04:54:46;;;;;;;0.70;0.60;;;0.20;99.90;;;1.20;100.00;-20714.41;5043032;28;20753;-68
2021/03/18 04:57:20;;;;;;;0.70;0.60;;;0.20;99.90;;;1.22;100.00;-20714.97;5048758;28;20535;-68
2021/03/18 04:59:49;;;;;;;0.70;0.60;;;0.20;99.90;;;1.29;100.00;-20716.78;5034747;28;20225;-67
2021/03/18 05:02:18;;;;;;;0.70;0.60;;;0.30;99.90;;;1.30;100.00;-20717.06;5049836;28;20285;-71
2021/03/18 05:04:46;;;;;;;0.70;0.60;;;0.30;99.90;;;1.31;100.00;-20717.47;5033250;28;20678;-68
2021/03/18 05:07:14;;;;;;;0.60;0.52;;;0.30;99.90;;;1.30;100.00;-20717.06;5034238;28;20186;-68
2021/03/18 05:09:43;;;;;;;0.63;0.57;;;0.30;99.90;;;1.34;100.00;-20718.16;5017803;28;20695;-69
2021/03/18 05:12:11;;;;;;;0.70;0.70;;;0.30;99.90;;;1.39;100.00;-20719.72;5020526;28;20202;-68
2021/03/18 05:14:39;;;;;;;0.70;0.60;;;0.40;99.90;;;1.48;100.00;-20722.09;5034543;28;20297;-69
2021/03/18 05:17:08;;;;;;;0.70;0.60;;;0.40;99.90;;;1.55;100.00;-20723.91;5033884;28;20193;-67
2021/03/18 05:19:39;;;;;;;1.02;0.93;;;0.40;99.90;;;1.58;100.00;-20724.88;5034947;28;20305;-68
2021/03/18 05:22:07;;;;;;;0.60;0.60;;;0.50;99.90;;;1.45;100.00;-20721.38;5035355;28;20539;-68
2021/03/18 05:24:36;;;;;;;0.70;0.60;;;0.40;99.90;;;1.48;100.00;-20721.94;5035512;28;20724;-68
2021/03/18 05:27:04;;;;;;;0.70;0.60;;;0.40;99.90;;;1.55;100.00;-20723.91;5035529;28;20245;-68
2021/03/18 05:29:31;;;;;;;3.38;1.25;;;0.40;99.90;;;1.59;100.00;-20725.16;5035711;28;20631;-68
2021/03/18 05:31:58;;;;;;;0.70;0.60;;;0.50;99.90;;;1.57;100.00;-20724.47;5035559;28;20277;-68
2021/03/18 05:34:28;;;;;;;0.70;0.60;;;0.50;99.90;;;1.55;100.00;-20723.91;5035586;28;20215;-68
2021/03/18 05:36:55;;;;;;;0.70;0.60;;;0.50;99.90;;;1.55;100.00;-20724.03;5034794;28;20194;-68
2021/03/18 05:39:21;;;;;;;0.68;0.60;;;0.50;99.90;;;1.49;100.00;-20722.22;5015941;28;20206;-68
2021/03/18 05:41:49;;;;;;;0.70;0.70;;;0.40;99.90;;;1.57;100.00;-20724.47;5016263;28;20198;-68
2021/03/18 05:44:17;;;;;;;0.70;0.68;;;0.50;99.90;;;1.58;100.00;-20724.75;5035139;28;20183;-68
2021/03/18 05:46:44;;;;;;;0.90;0.88;;;0.50;99.90;;;1.66;100.00;-20726.97;5035848;28;20182;-68
2021/03/18 05:49:13;;;;;;;0.70;0.50;;;0.50;99.90;;;1.69;100.00;-20727.97;5033654;28;20210;-69
2021/03/18 05:51:48;;;;;;;0.70;0.60;;;0.60;99.90;;;1.69;100.00;-20727.81;5033248;28;20662;-68
2021/03/18 05:54:19;;;;;;;0.70;0.60;;;0.60;99.90;;;1.69;100.00;-20727.81;5035395;28;20214;-68
2021/03/18 05:56:49;;;;;;;0.70;0.60;;;0.60;99.90;;;1.83;100.00;-20731.59;5034646;28;20258;-68
2021/03/18 05:59:18;;;;;;;0.70;0.60;;;0.60;99.90;;;1.80;100.00;-20730.88;5035505;28;20186;-68
2021/03/18 06:01:45;;;;;;;0.68;0.60;;;0.70;99.90;;;1.84;100.00;-20732.00;5033095;28;20190;-67
2021/03/18 06:04:12;;;;;;;0.80;0.73;;;0.70;99.90;;;1.87;100.00;-20732.84;5035053;28;20570;-68
2021/03/18 06:06:42;;;;;;;0.70;0.60;;;0.70;99.90;;;1.74;100.00;-20729.06;5034014;28;20525;-67
2021/03/18 06:09:09;;;;;;;0.70;0.60;;;0.70;99.90;;;1.86;100.00;-20732.56;5019099;28;20695;-68
2021/03/18 06:11:39;;;;;;;0.95;0.88;;;0.80;99.90;;;1.82;100.00;-20731.44;5017062;28;20194;-68
2021/03/18 06:14:07;;;;;;;1.33;1.23;;;0.80;99.90;;;2.01;100.00;-20736.47;5033749;28;20273;-68
2021/03/18 06:16:35;;;;;;;0.70;0.60;;;0.80;99.90;;;2.16;100.00;-20740.66;5034905;28;20722;-68
2021/03/18 06:19:06;;;;;;;0.68;0.50;;;0.90;99.90;;;2.04;100.00;-20737.31;5034672;28;20202;-67
2021/03/18 06:21:47;;;;;;;0.70;0.68;;;0.90;99.90;;;2.16;100.00;-20740.66;5034662;28;20206;-67
2021/03/18 06:24:15;;;;;;;0.60;0.60;;;0.90;99.90;;;2.30;100.00;-20744.44;5034870;28;20248;-67
2021/03/18 06:26:42;;;;;;;0.70;0.60;;;0.90;99.90;;;2.25;100.00;-20743.03;5034295;28;20685;-68
2021/03/18 06:29:33;;;;;;;0.70;0.70;;;1.00;99.90;;;2.27;100.00;-20743.59;5034561;28;20186;-67
2021/03/18 06:32:15;;;;;;;0.68;0.60;;;1.10;99.90;;;2.25;100.00;-20743.19;5034686;28;20548;-67
2021/03/18 06:34:46;;;;;;;0.68;0.60;;;1.10;99.90;;;2.15;100.00;-20740.38;5033876;28;20509;-68
2021/03/18 06:37:37;;;;;;;0.70;0.60;;;1.10;99.90;;;2.24;100.00;-20742.75;5021269;28;20190;-68
2021/03/18 06:40:18;;;;;;;0.60;0.60;;;1.20;99.90;;;2.47;100.00;-20749.03;5014945;28;20175;-67
2021/03/18 06:42:57;;;;;;;0.70;0.60;;;1.20;99.90;;;2.38;100.00;-20746.66;5025593;28;20647;-66
2021/03/18 06:45:29;;;;;;;0.70;0.60;;;1.30;99.90;;;2.42;100.00;-20747.94;5034240;28;20587;-68
2021/03/18 06:48:00;;;;;;;0.70;0.60;;;1.30;99.90;;;2.53;100.00;-20750.72;5034481;28;20182;-68
2021/03/18 06:50:33;;;;;;;0.70;0.60;;;1.40;99.90;;;2.83;100.00;-20759.09;5033076;28;20221;-68
2021/03/18 06:53:01;;;;;;;1.02;0.93;;;1.50;99.90;;;3.05;100.00;-20765.09;5034523;28;20189;-67
2021/03/18 06:55:31;;;;;;;0.70;0.50;;;1.50;99.90;;;3.12;100.00;-20766.91;5034206;28;20210;-68
2021/03/18 06:58:18;;;;;;;0.60;0.60;;;1.60;99.90;;;3.09;100.00;-20766.06;5033792;28;20182;-68
2021/03/18 07:00:48;;;;;;;0.70;0.50;;;1.80;99.90;;;3.55;100.00;-20778.63;5034263;28;20174;-67
2021/03/18 07:03:29;;;;;;;1.42;1.33;;;1.80;99.90;;;3.74;100.00;-20783.91;5034085;28;20210;-67
2021/03/18 07:05:57;;;;;;;0.60;0.60;;;1.90;99.90;;;3.60;100.00;-20780.00;5033788;28;20166;-68
2021/03/18 07:08:28;;;;;;;0.65;0.60;;;2.10;99.90;;;4.18;100.00;-20795.78;5032171;28;20202;-68
2021/03/18 07:10:58;;;;;;;0.70;0.70;;;2.20;99.90;;;4.45;100.00;-20803.28;5033803;28;20590;-68
2021/03/18 07:13:27;;;;;;;0.63;0.60;;;2.30;99.90;;;4.72;100.00;-20810.69;5032327;28;20248;-68
2021/03/18 07:15:56;;;;;;;0.70;0.60;;;2.50;99.90;;;4.69;100.00;-20809.84;5033503;28;20194;-68
2021/03/18 07:18:25;;;;;;;0.60;0.50;;;2.70;99.90;;;4.67;100.00;-20809.28;5033764;28;20217;-68
2021/03/18 07:21:04;;;;;;;0.60;0.60;;;2.70;99.90;;;4.69;100.00;-20809.84;5034339;28;20233;-68
2021/03/18 07:23:37;;;;;;;0.60;0.60;;;2.80;99.90;;;4.45;100.00;-20803.28;5033596;28;20182;-68
2021/03/18 07:26:21;;;;;;;0.70;0.60;;;2.90;99.90;;;4.62;100.00;-20807.88;5033540;28;20248;-68
2021/03/18 07:28:50;;;;;;;0.60;0.50;;;2.80;99.90;;;5.16;100.00;-20822.66;5032572;28;20202;-69
2021/03/18 07:31:19;;;;;;;0.60;0.50;;;2.80;99.90;;;5.10;100.00;-20820.97;5033199;28;20734;-68
2021/03/18 07:33:48;;;;;;;0.70;0.60;;;2.80;99.90;;;4.71;100.00;-20810.41;5033662;28;20222;-68
2021/03/18 07:36:16;;;;;;;0.63;0.60;;;3.00;99.90;;;4.81;100.00;-20813.19;5033730;28;20460;-67
2021/03/18 07:38:45;;;;;;;0.70;0.60;;;3.20;99.90;;;5.55;100.00;-20833.22;5023301;28;20837;-68
2021/03/18 07:41:15;;;;;;;0.70;0.60;;;3.20;99.90;;;5.64;100.00;-20835.72;5021885;28;20638;-68
2021/03/18 07:43:45;;;;;;;0.70;0.60;;;3.30;99.90;;;5.74;100.00;-20838.38;5032688;28;20197;-68
2021/03/18 07:46:20;;;;;;;0.70;0.50;;;3.40;99.90;;;5.92;100.00;-20843.38;5033485;28;20665;-68
2021/03/18 07:48:52;;;;;;;0.63;0.60;;;3.50;99.90;;;6.29;100.00;-20853.53;5033209;28;20216;-68
2021/03/18 07:51:27;;;;;;;0.70;0.60;;;3.40;99.90;;;5.96;100.00;-20844.34;5033225;28;20409;-68
2021/03/18 07:53:59;;;;;;;0.67;0.60;;;3.60;99.90;;;6.32;100.00;-20854.09;5033192;28;20833;-68
2021/03/18 07:56:27;;;;;;;0.67;0.60;;;3.50;99.90;;;5.86;100.00;-20841.72;5033086;28;20957;-68
2021/03/18 07:58:54;;;;;;;0.60;0.60;;;3.60;99.90;;;5.37;100.00;-20828.22;5033116;28;20483;-68
2021/03/18 08:01:39;;;;;;;1.87;1.77;;;3.60;99.90;;;6.05;100.00;-20846.88;5032942;28;20940;-69
2021/03/18 08:04:11;;;;;;;0.70;0.60;;;3.60;99.90;;;6.26;100.00;-20852.72;5032476;28;20484;-69
2021/03/18 08:06:54;;;;;;;0.73;0.73;;;3.60;99.90;;;5.99;100.00;-20845.19;5033060;28;20927;-68
2021/03/18 08:09:51;;;;;;;0.70;0.60;;;3.80;99.90;;;5.46;100.00;-20830.88;5031325;28;20526;-68
2021/03/18 08:12:49;;;;;;;0.70;0.60;;;3.90;99.90;;;5.96;100.00;-20844.34;5033231;28;20470;-67
2021/03/18 08:15:32;;;;;;;0.70;0.70;;;3.70;99.90;;;6.14;100.00;-20849.38;5036105;28;20544;-67
2021/03/18 08:18:33;;;;;;;0.70;0.60;;;3.70;99.90;;;5.44;100.00;-20830.16;5037116;28;20478;-67
2021/03/18 08:21:04;;;;;;;0.70;0.70;;;3.90;99.90;;;5.46;100.00;-20830.88;5037135;28;20438;-69
2021/03/18 08:23:54;;;;;;;0.63;0.60;;;4.00;99.90;;;5.26;100.00;-20825.28;5036913;28;20455;-68
2021/03/18 08:26:43;;;;;;;0.70;0.60;;;3.90;99.90;;;5.20;100.00;-20823.75;5036986;28;20440;-68
2021/03/18 08:29:23;;;;;;;0.70;0.60;;;4.00;99.90;;;6.05;100.00;-20846.88;5037175;28;20450;-68
2021/03/18 08:31:55;;;;;;;0.70;0.60;;;3.80;99.90;;;5.79;100.00;-20839.91;5036788;28;20413;-68
2021/03/18 08:34:47;;;;;;;0.80;0.80;;;4.10;99.90;;;6.80;100.00;-20867.28;5036729;28;20449;-68
2021/03/18 08:37:31;;;;;;;0.70;0.60;;;4.20;99.90;;;6.31;100.00;-20853.97;5036693;28;20428;-68
2021/03/18 08:39:59;;;;;;;0.70;0.60;;;4.40;99.90;;;6.87;100.00;-20869.25;5034337;28;20440;-68
2021/03/18 08:42:42;;;;;;;0.70;0.70;;;4.40;99.90;;;7.10;100.00;-20875.50;5036168;28;20839;-67
2021/03/18 08:45:44;;;;;;;0.70;0.60;;;4.30;99.90;;;6.77;100.00;-20866.47;5035412;28;20774;-67
2021/03/18 08:48:18;;;;;;;1.33;1.23;;;4.60;99.90;;;7.11;100.00;-20875.78;5015296;28;20465;-68
2021/03/18 08:50:59;;;;;;;0.70;0.60;;;4.40;99.90;;;6.92;100.00;-20870.50;5027757;28;20858;-67
2021/03/18 08:53:38;;;;;;;1.37;1.27;;;4.40;99.90;;;6.92;100.00;-20870.50;5035620;28;20445;-67
2021/03/18 08:56:07;;;;;;;0.70;0.60;;;4.60;99.90;;;7.16;100.00;-20877.03;5028183;28;20467;-66
2021/03/18 08:58:53;;;;;;;1.07;0.97;;;4.50;99.90;;;6.82;100.00;-20867.72;5036393;28;20929;-69
2021/03/18 09:01:22;;;;;;;0.70;0.60;;;4.80;99.90;;;6.26;100.00;-20852.72;5035415;28;20410;-69
2021/03/18 09:03:59;;;;;;;2.13;1.07;;;4.70;99.90;;;6.46;100.00;-20858.00;5034779;28;20462;-68
2021/03/18 09:06:31;;;;;;;0.70;0.60;;;4.90;99.90;;;6.97;100.00;-20872.03;5035178;28;20705;-68
2021/03/18 09:09:02;;;;;;;0.90;0.90;;;4.90;99.90;;;7.26;100.00;-20879.94;5033351;28;21004;-67
2021/03/18 09:11:30;;;;;;;0.70;0.60;;;5.30;99.90;;;7.45;100.00;-20884.94;5035998;28;20450;-67
2021/03/18 09:13:59;;;;;;;0.80;0.77;;;5.50;99.90;;;7.12;100.00;-20876.06;5035741;28;20438;-68
2021/03/18 09:16:26;;;;;;;1.27;1.17;;;5.60;99.90;;;7.44;100.00;-20884.66;5035923;28;20805;-67
2021/03/18 09:18:59;;;;;;;1.33;1.23;;;5.90;99.90;;;7.92;100.00;-20897.72;5034553;28;20451;-67
2021/03/18 09:21:35;;;;;;;1.73;0.90;;;6.00;99.90;;;7.74;100.00;-20893.00;5035597;28;20531;-68
2021/03/18 09:24:07;;;;;;;0.70;0.60;;;6.10;99.90;;;7.54;100.00;-20887.28;5015264;28;20429;-67
2021/03/18 09:26:34;;;;;;;0.70;0.67;;;5.80;99.90;;;7.81;100.00;-20894.66;5016268;28;20434;-67
2021/03/18 09:29:02;;;;;;;0.70;0.60;;;6.00;99.90;;;7.93;100.00;-20897.97;5035217;28;20787;-67
2021/03/18 09:31:29;;;;;;;0.70;0.50;;;6.10;99.90;;;7.65;100.00;-20890.50;5035940;28;20433;-67
2021/03/18 09:33:58;;;;;;;0.70;0.67;;;6.20;99.90;;;8.07;100.00;-20901.88;5036170;28;20468;-67
2021/03/18 09:36:28;;;;;;;0.70;0.60;;;6.10;99.90;;;9.10;100.00;-20929.88;5035890;28;20457;-67
2021/03/18 09:38:59;;;;;;;1.23;1.13;;;5.90;99.90;;;8.99;100.00;-20926.69;5032363;28;20465;-67
2021/03/18 09:41:32;;;;;;;1.10;1.00;;;5.90;99.90;;;9.29;100.00;-20934.88;5021761;28;20432;-67
2021/03/18 09:44:07;;;;;;;0.70;0.60;;;6.00;99.90;;;7.85;100.00;-20895.91;5035179;28;20406;-67
2021/03/18 09:46:37;;;;;;;1.10;1.00;;;6.10;99.90;;;8.82;100.00;-20922.13;5034340;28;20505;-67
2021/03/18 09:49:06;;;;;;;0.70;0.70;;;6.10;99.90;;;8.34;100.00;-20909.09;5035299;28;20472;-68
2021/03/18 09:51:40;;;;;;;0.70;0.70;;;6.20;99.90;;;8.44;100.00;-20912.00;5034922;28;20518;-68
2021/03/18 09:54:10;;;;;;;0.70;0.60;;;6.40;99.90;;;9.90;100.00;-20951.50;5035782;28;20417;-67
2021/03/18 09:56:40;;;;;;;0.70;0.60;;;6.00;99.90;;;8.84;100.00;-20922.81;5035286;28;20499;-67
2021/03/18 09:59:13;;;;;;;0.80;0.70;;;6.10;99.90;;;8.44;100.00;-20911.88;5035124;28;20460;-70
2021/03/18 10:01:41;;;;;;;0.70;0.60;;;6.50;99.90;;;9.26;100.00;-20934.19;5035223;28;20466;-68
2021/03/18 10:04:15;;;;;;;0.70;0.70;;;6.60;99.90;;;9.40;100.00;-20937.91;5033418;28;20560;-68
2021/03/18 10:06:47;;;;;;;0.70;0.60;;;6.60;99.90;;;9.93;100.00;-20952.31;5015841;28;20412;-67
2021/03/18 10:09:20;;;;;;;0.70;0.70;;;6.20;99.90;;;9.60;100.00;-20943.47;5032306;28;20784;-68
2021/03/18 10:11:55;;;;;;;0.70;0.70;;;6.40;99.90;;;10.00;100.00;-20954.13;5034940;28;20438;-67
2021/03/18 10:14:26;;;;;;;0.70;0.60;;;6.30;99.90;;;9.77;100.00;-20948.03;5033542;28;20413;-67
2021/03/18 10:17:12;;;;;;;0.70;0.60;;;6.80;99.90;;;9.70;100.00;-20945.94;5034959;28;20417;-70
2021/03/18 10:19:45;;;;;;;0.70;0.60;;;7.20;99.90;;;10.75;100.00;-20974.59;5034988;28;20505;-69
2021/03/18 10:22:13;;;;;;;0.70;0.70;;;7.20;99.90;;;11.20;100.00;-20986.78;5034222;28;20440;-69
2021/03/18 10:24:40;;;;;;;0.80;0.77;;;7.00;99.90;;;11.41;100.00;-20992.28;5034839;28;20466;-69
2021/03/18 10:27:13;;;;;;;1.43;1.33;;;7.00;99.90;;;11.20;100.00;-20986.78;5034486;28;20530;-69
2021/03/18 10:29:43;;;;;;;1.37;1.27;;;6.80;99.90;;;10.72;100.00;-20973.78;5034541;28;20425;-69
2021/03/18 10:32:14;;;;;;;0.70;0.60;;;7.10;99.90;;;10.14;100.00;-20958.13;5034633;28;20429;-68
2021/03/18 10:34:53;;;;;;;0.80;0.80;;;7.60;99.90;;;10.86;100.00;-20977.50;5034217;28;20443;-69
2021/03/18 10:37:27;;;;;;;0.80;0.70;;;7.80;99.90;;;11.89;100.00;-21005.44;5034561;28;20475;-69